Terminal Aerodrome Forecast
Issued by NWS

Current Version | Previous Version | Text Only | Print | Product List | Glossary Off
Versions: 1 2 3 4 5 6 7 8 9 10 11 12 13 14 15 16 17 18 19 20 21

000
FTUS41 KPBZ 012336
TAFHLG
TAF
KHLG 012336Z 0200/0224 26004KT P6SM SCT050
     FM020900 VRB03KT 1SM BR BKN008
     FM021300 32002KT 3SM BR SCT010 BKN120
     FM021500 32003KT P6SM SCT050=

USA.gov is the U.S. government's official web portal to all federal, state and local government web resources and services.